AGROMETEOROLOŠKI PORTAL

vinorodna pokrajina

Temelj dobrega kmetovanja

Pregled podatkov za lokacijo BORŠT PRI GORENJI VASI ARSO, meteorološka postaja 111

Pregled senzorjev na lokaciji

ID Ime Zadnja
vrednost
Datum in čas
meritve
(lokalni čas)
Tip
senzorja
2503 Sončno sevanje (W/m2) 2 W/m2 25.9.2022 22:00 ARSO
2509 Padavine (mm) 0,4 mm 25.9.2022 22:00 ARSO
2517 Relativna zračna vlaga (2 m) (% RH) 98 % RH 25.9.2022 22:00 ARSO
2516 Temperatura (2 m) (°C) 10,9 °C 25.9.2022 22:00 ARSO
2521 Smer vetra (2 m) (°) 45 ° 25.9.2022 22:00 ARSO
2522 Hitrost vetra (2 m) (km/h) 2 km/h 25.9.2022 22:00 ARSO

Pregled podatkov zadnjih 24 ur

Zap.
št.
Datum in čas
(lokalni čas)
BORŠT PRI GORENJI VASI ARSO
Sončno
sevanje
Padavine Relativna
zračna
vlaga
(2
m)
Temperatura
(2
m)
Smer
vetra
(2
m)
Hitrost
vetra
(2
m)
1 25.9.2022 22:00 2 0,4 98 10,9 45,3 1,7
2 25.9.2022 21:30 2 0,6 98 11 51 2,3
3 25.9.2022 21:00 2 1,3 98 11,1 271,3 1,3
4 25.9.2022 20:30 2 0,5 98 11,1 256 1,7
5 25.9.2022 20:00 2 0,6 97,3 11,1 175,5 1,7
6 25.9.2022 19:30 2 0 97,7 11,1 164,8 2,3
7 25.9.2022 19:00 5,7 0 97,3 11,3 328,4 1,7
8 25.9.2022 18:30 7,3 0 97 11,2 48,4 1,3
9 25.9.2022 18:00 12,3 0 97 11,3 290,6 1,7
10 25.9.2022 17:30 33,3 0 97 11,4 325 1,3
11 25.9.2022 17:00 38,7 0 95 11,3 179,7 2,3
12 25.9.2022 16:30 64 0 96 11,2 247,3 1,7
13 25.9.2022 16:00 53,3 0,4 96,7 11,1 326,4 2
14 25.9.2022 15:30 65 1 96 11,2 275,4 2,3
15 25.9.2022 15:00 116 0,4 96,3 11 264,2 2
16 25.9.2022 14:30 77 3,9 97 10,7 217,3 3
17 25.9.2022 14:00 66 3,9 96 10,7 308,3 3,3
18 25.9.2022 13:30 50 2,4 97 10,7 256,1 2,7
19 25.9.2022 13:00 63,7 2,1 96,3 10,8 264 3
20 25.9.2022 12:30 61,7 1,7 96,3 10,7 199,1 3,3
21 25.9.2022 12:00 48 2,3 95,7 10,4 48,4 5,3
22 25.9.2022 11:30 65,7 1,7 95,7 10,6 35,1 8
23 25.9.2022 11:00 35,3 2,8 95 10,5 143 3
24 25.9.2022 10:30 30 0,8 96 10,9 28,8 4,3
25 25.9.2022 10:00 40,3 1,6 97,7 10,9 125,7 3
26 25.9.2022 09:30 22 1,6 98 10,8 344,9 2,3
27 25.9.2022 09:00 20 3,2 98 10,8 287 3,7
28 25.9.2022 08:30 9,7 2,8 98 10,8 206,6 3,7
29 25.9.2022 08:00 5,3 3,4 98 10,8 205,3 2
30 25.9.2022 07:30 3 2,9 98 10,8 164,5 2,7
31 25.9.2022 07:00 2,3 2 98 10,9 205,4 1,7
32 25.9.2022 06:30 1,7 1 98 10,9 244,7 1,7
33 25.9.2022 06:00 2 0,6 98 10,9 153,2 1,3
34 25.9.2022 05:30 1,7 0,7 97,7 10,9 85,8 1,3
35 25.9.2022 05:00 2 0,5 97 10,9 53 1,3
36 25.9.2022 04:30 1,7 1,2 97 10,9 70 2,3
37 25.9.2022 04:00 2 1,6 97 11 105,3 2
38 25.9.2022 03:30 1,7 0,2 96,7 11,1 291,2 2,3
39 25.9.2022 03:00 1,7 0,1 96,3 11,2 355,5 2,3
40 25.9.2022 02:30 2 0,2 94,7 11,3 266,7 3
41 25.9.2022 02:00 2 0,3 97 11,3 114,8 2,3
42 25.9.2022 01:30 1,7 0,6 97,7 11,4 78,5 1,3
43 25.9.2022 01:00 1,7 0,3 98 11,3 30,6 2
44 25.9.2022 00:30 1,7 0,2 97 11,5 73,2 2,3
45 25.9.2022 00:00 2 0,4 96,7 11,6 95,1 3
46 24.9.2022 23:30 1,7 0,2 95,7 11,6 110,6 1,7